Time;durP1;ratioP1;P1;durP2;ratioP2;P2;SDS_P1;SDS_P2;PMS_P1;PMS_P2;Temp;Humidity;BMP_temperature;BMP_pressure;BME280_temperature;BME280_humidity;BME280_pressure;Samples;Min_cycle;Max_cycle;Signal;HPM_P1;HPM_P2
2022/04/11 00:02:01;;;;;;;12.93;5.57;;;7.90;96.30;;;;;;5032769;28;20033;-65
2022/04/11 00:04:28;;;;;;;11.75;5.82;;;7.90;96.30;;;;;;5032583;28;20096;-66
2022/04/11 00:06:54;;;;;;;11.88;4.88;;;7.90;96.30;;;;;;5032295;28;20045;-65
2022/04/11 00:09:19;;;;;;;10.10;5.18;;;7.90;96.50;;;;;;5032882;28;20466;-65
2022/04/11 00:11:46;;;;;;;10.50;5.60;;;7.90;96.60;;;;;;5032382;28;20471;-65
2022/04/11 00:14:13;;;;;;;13.40;5.30;;;7.80;96.90;;;;;;5032310;28;20550;-65
2022/04/11 00:16:39;;;;;;;12.27;5.28;;;7.70;97.20;;;;;;5032598;28;20116;-65
2022/04/11 00:19:05;;;;;;;11.48;5.55;;;7.70;97.40;;;;;;5032173;28;20026;-65
2022/04/11 00:21:31;;;;;;;11.30;5.28;;;7.70;97.30;;;;;;5032093;28;20392;-65
2022/04/11 00:23:57;;;;;;;11.02;5.35;;;7.60;97.00;;;;;;5028447;28;20052;-65
2022/04/11 00:26:22;;;;;;;14.98;5.20;;;7.70;96.70;;;;;;5011546;28;20506;-65
2022/04/11 00:28:48;;;;;;;9.25;5.07;;;7.80;96.10;;;;;;5030895;28;20025;-65
2022/04/11 00:31:13;;;;;;;10.23;4.47;;;7.80;96.30;;;;;;5032186;28;20459;-65
2022/04/11 00:33:39;;;;;;;7.68;4.55;;;7.90;95.50;;;;;;5031868;28;20018;-65
2022/04/11 00:36:05;;;;;;;8.60;4.28;;;8.10;94.40;;;;;;5031889;28;20124;-65
2022/04/11 00:38:30;;;;;;;11.68;4.00;;;8.20;93.80;;;;;;5031583;28;20108;-65
2022/04/11 00:40:56;;;;;;;7.93;3.90;;;8.20;93.10;;;;;;5031926;28;20362;-65
2022/04/11 00:43:39;;;;;;;10.07;4.40;;;8.40;92.70;;;;;;5031938;28;20369;-65
2022/04/11 00:46:06;;;;;;;7.65;3.80;;;8.30;92.20;;;;;;5031781;28;20435;-66
2022/04/11 00:48:32;;;;;;;8.15;4.07;;;8.40;91.50;;;;;;5031884;28;20022;-65
2022/04/11 00:51:02;;;;;;;6.57;3.53;;;8.50;91.20;;;;;;5031400;28;20037;-65
2022/04/11 00:53:31;;;;;;;4.85;3.55;;;8.50;90.90;;;;;;5031478;28;20040;-66
2022/04/11 00:55:58;;;;;;;8.88;4.15;;;8.60;90.30;;;;;;5031612;28;20022;-65
2022/04/11 00:58:24;;;;;;;6.10;3.30;;;8.60;90.70;;;;;;5031478;28;20033;-65
2022/04/11 01:00:50;;;;;;;7.32;3.78;;;8.40;91.20;;;;;;5030975;28;20033;-65
2022/04/11 01:03:16;;;;;;;6.68;3.75;;;8.40;91.30;;;;;;5028591;28;20138;-65
2022/04/11 01:05:42;;;;;;;7.03;3.53;;;8.40;92.00;;;;;;5027844;28;20472;-65
2022/04/11 01:08:10;;;;;;;6.57;3.65;;;8.40;91.80;;;;;;5030538;28;20497;-65
2022/04/11 01:10:35;;;;;;;7.25;3.95;;;8.40;91.80;;;;;;5031454;28;20021;-65
2022/04/11 01:13:02;;;;;;;7.10;3.70;;;8.40;91.80;;;;;;5030857;28;20028;-65
2022/04/11 01:15:28;;;;;;;9.68;3.80;;;8.30;92.00;;;;;;5031247;28;20044;-65
2022/04/11 01:17:54;;;;;;;6.57;3.70;;;8.30;92.10;;;;;;5031503;28;20025;-65
2022/04/11 01:20:20;;;;;;;8.57;4.63;;;8.40;91.70;;;;;;5030809;28;20072;-65
2022/04/11 01:22:47;;;;;;;5.60;3.92;;;8.40;91.90;;;;;;5030871;28;20024;-65
2022/04/11 01:25:14;;;;;;;5.82;3.97;;;8.40;91.60;;;;;;5031049;28;20040;-65
2022/04/11 01:27:41;;;;;;;11.57;4.28;;;8.40;91.60;;;;;;5031275;28;20041;-65
2022/04/11 01:30:09;;;;;;;7.63;3.58;;;8.40;91.90;;;;;;5030969;28;20467;-66
2022/04/11 01:32:36;;;;;;;7.55;4.20;;;8.30;91.70;;;;;;5031070;28;20025;-65
2022/04/11 01:35:02;;;;;;;9.18;3.28;;;8.30;92.10;;;;;;5030484;28;20432;-65
2022/04/11 01:37:28;;;;;;;6.25;3.60;;;8.30;92.10;;;;;;5030543;28;20545;-66
2022/04/11 01:39:54;;;;;;;9.52;4.20;;;8.40;91.50;;;;;;5030755;28;20062;-65
2022/04/11 01:42:19;;;;;;;9.02;4.07;;;8.50;91.80;;;;;;5030767;28;20036;-65
2022/04/11 01:44:45;;;;;;;7.03;4.10;;;8.50;92.00;;;;;;5030560;28;20128;-66
2022/04/11 01:47:11;;;;;;;9.88;4.10;;;8.40;91.90;;;;;;5029950;28;20022;-65
2022/04/11 01:49:37;;;;;;;6.30;3.60;;;8.40;92.30;;;;;;5025362;28;20032;-66
2022/04/11 01:52:03;;;;;;;6.05;3.10;;;8.40;92.30;;;;;;5026875;28;20036;-65
2022/04/11 01:54:29;;;;;;;6.90;3.55;;;8.40;92.30;;;;;;5027800;28;20476;-66
2022/04/11 01:56:55;;;;;;;6.05;3.63;;;8.40;92.60;;;;;;5027582;28;20140;-66
2022/04/11 01:59:20;;;;;;;11.25;4.68;;;8.30;92.80;;;;;;5027345;28;20049;-65
2022/04/11 02:01:46;;;;;;;9.60;3.88;;;8.30;93.00;;;;;;5027278;28;20104;-65
2022/04/11 02:04:12;;;;;;;5.78;3.58;;;8.30;93.10;;;;;;5027734;28;20042;-65
2022/04/11 02:06:37;;;;;;;8.38;4.15;;;8.30;93.30;;;;;;5030078;28;20033;-66
2022/04/11 02:09:04;;;;;;;6.60;4.03;;;8.30;93.30;;;;;;5029373;28;20235;-67
2022/04/11 02:11:30;;;;;;;5.90;3.58;;;8.20;93.60;;;;;;5027077;28;20026;-65
2022/04/11 02:13:55;;;;;;;7.40;3.80;;;8.10;93.70;;;;;;5026973;28;20044;-65
2022/04/11 02:16:23;;;;;;;15.65;5.22;;;8.20;93.70;;;;;;5026850;28;20160;-65
2022/04/11 02:18:49;;;;;;;10.20;4.07;;;8.10;94.00;;;;;;5027691;28;20025;-65
2022/04/11 02:21:15;;;;;;;9.90;4.53;;;8.00;94.50;;;;;;5030028;28;20029;-65
2022/04/11 02:23:40;;;;;;;8.60;4.43;;;8.00;94.40;;;;;;5029214;28;20064;-65
2022/04/11 02:26:06;;;;;;;11.27;4.53;;;8.00;94.70;;;;;;5027035;28;20132;-65
2022/04/11 02:28:32;;;;;;;8.05;4.35;;;7.90;94.70;;;;;;5026960;28;20091;-66
2022/04/11 02:30:58;;;;;;;8.02;4.47;;;7.90;94.90;;;;;;5029423;28;20104;-65
2022/04/11 02:33:23;;;;;;;9.98;4.47;;;7.80;95.30;;;;;;5030131;28;20026;-65
2022/04/11 02:35:49;;;;;;;7.47;4.60;;;7.80;95.50;;;;;;5012144;28;20422;-65
2022/04/11 02:38:14;;;;;;;9.05;4.18;;;7.70;95.60;;;;;;5029800;28;20024;-66
2022/04/11 02:40:40;;;;;;;7.22;4.05;;;7.70;95.80;;;;;;5029769;28;20108;-66
2022/04/11 02:43:06;;;;;;;10.20;5.03;;;7.70;95.90;;;;;;5029789;28;20028;-66
2022/04/11 02:45:32;;;;;;;8.23;4.75;;;7.70;95.60;;;;;;5029724;28;20043;-66
2022/04/11 02:47:57;;;;;;;8.88;4.75;;;7.70;95.40;;;;;;5029254;28;20129;-65
2022/04/11 02:50:23;;;;;;;10.95;4.45;;;7.70;95.50;;;;;;5029415;28;20385;-66
2022/04/11 02:52:49;;;;;;;12.07;4.35;;;7.70;95.30;;;;;;5029579;28;20080;-65
2022/04/11 02:55:15;;;;;;;10.88;5.63;;;7.80;95.30;;;;;;5030046;28;20032;-65
2022/04/11 02:57:40;;;;;;;8.05;4.35;;;7.80;95.20;;;;;;5029599;28;20417;-65
2022/04/11 03:00:12;;;;;;;11.30;4.88;;;7.90;95.20;;;;;;5029473;28;20053;-65
2022/04/11 03:02:38;;;;;;;11.95;4.95;;;7.80;95.20;;;;;;5029429;28;20436;-66
2022/04/11 03:05:04;;;;;;;10.48;5.05;;;7.80;95.40;;;;;;5029418;28;20048;-66
2022/04/11 03:07:30;;;;;;;10.02;4.57;;;7.70;95.50;;;;;;5028992;28;20032;-66
2022/04/11 03:09:56;;;;;;;9.63;4.82;;;7.70;95.70;;;;;;5011578;28;20222;-65
2022/04/11 03:12:22;;;;;;;15.25;5.32;;;7.80;95.70;;;;;;5029632;28;20491;-67
2022/04/11 03:14:49;;;;;;;11.70;5.38;;;7.80;95.70;;;;;;5029353;28;20026;-66
2022/04/11 03:17:15;;;;;;;12.52;4.35;;;7.70;95.90;;;;;;5029491;28;20025;-66
2022/04/11 03:19:41;;;;;;;8.02;4.50;;;7.70;96.20;;;;;;5029290;28;20029;-66
2022/04/11 03:22:06;;;;;;;8.52;4.97;;;7.60;96.50;;;;;;5029134;28;20076;-66
2022/04/11 03:24:32;;;;;;;8.82;5.50;;;7.60;96.50;;;;;;5029271;28;20053;-66
2022/04/11 03:26:58;;;;;;;10.18;4.72;;;7.60;96.30;;;;;;5029240;28;20374;-66
2022/04/11 03:29:23;;;;;;;12.20;5.30;;;7.70;96.30;;;;;;5029230;28;20045;-66
2022/04/11 03:31:49;;;;;;;12.10;6.03;;;7.70;96.20;;;;;;5029388;28;20113;-66
2022/04/11 03:34:14;;;;;;;12.23;5.10;;;7.70;96.10;;;;;;5029195;28;20036;-66
2022/04/11 03:36:40;;;;;;;12.60;5.15;;;7.80;96.20;;;;;;5029079;28;20044;-66
2022/04/11 03:39:06;;;;;;;10.80;5.40;;;7.70;96.20;;;;;;5029226;28;20021;-67
2022/04/11 03:41:31;;;;;;;8.75;4.97;;;7.70;96.30;;;;;;5029287;28;20101;-66
2022/04/11 03:43:57;;;;;;;9.02;5.30;;;7.70;96.00;;;;;;5028911;28;20041;-66
2022/04/11 03:46:23;;;;;;;10.38;5.28;;;7.70;95.90;;;;;;5029143;28;20552;-66
2022/04/11 03:48:48;;;;;;;11.15;5.47;;;7.70;95.90;;;;;;5029408;28;20507;-66
2022/04/11 03:51:14;;;;;;;10.38;5.00;;;7.90;95.10;;;;;;5029029;28;20586;-66
2022/04/11 03:53:41;;;;;;;12.38;5.13;;;7.90;95.10;;;;;;5029212;28;20037;-66
2022/04/11 03:56:06;;;;;;;11.10;5.70;;;7.90;95.10;;;;;;5029150;28;20116;-66
2022/04/11 03:58:32;;;;;;;10.23;5.53;;;7.80;95.30;;;;;;5028910;28;20061;-66
2022/04/11 04:00:59;;;;;;;13.05;5.53;;;7.80;95.40;;;;;;5031890;28;20052;-66
2022/04/11 04:03:26;;;;;;;12.18;5.30;;;7.70;95.70;;;;;;5032533;28;20029;-65
2022/04/11 04:05:51;;;;;;;10.50;5.10;;;7.70;95.50;;;;;;5032480;28;20045;-65
2022/04/11 04:08:17;;;;;;;10.15;5.43;;;7.70;95.40;;;;;;5032267;28;20376;-65
2022/04/11 04:10:44;;;;;;;8.43;4.70;;;7.70;95.50;;;;;;5032768;28;20037;-65
2022/04/11 04:13:10;;;;;;;10.63;5.47;;;7.60;95.40;;;;;;5032680;28;20034;-65
2022/04/11 04:15:37;;;;;;;12.25;5.47;;;7.60;95.40;;;;;;5031463;28;20030;-65
2022/04/11 04:18:03;;;;;;;9.25;5.30;;;7.60;95.50;;;;;;5028920;28;20027;-66
2022/04/11 04:20:29;;;;;;;8.55;5.07;;;7.60;95.20;;;;;;5029366;28;20025;-66
2022/04/11 04:22:56;;;;;;;11.57;5.10;;;7.60;94.70;;;;;;5031713;28;20021;-66
2022/04/11 04:25:22;;;;;;;12.05;5.40;;;7.70;94.50;;;;;;5032038;28;20511;-66
2022/04/11 04:27:48;;;;;;;8.73;4.78;;;7.80;94.10;;;;;;5031972;28;20112;-65
2022/04/11 04:30:14;;;;;;;11.45;4.90;;;7.80;93.90;;;;;;5032089;28;20108;-65
2022/04/11 04:32:40;;;;;;;11.88;4.75;;;7.80;93.70;;;;;;5029164;28;20034;-66
2022/04/11 04:35:07;;;;;;;9.05;4.97;;;7.90;93.30;;;;;;5028936;28;20032;-65
2022/04/11 04:37:33;;;;;;;8.23;4.68;;;7.90;93.60;;;;;;5030574;28;20025;-65
2022/04/11 04:39:59;;;;;;;10.43;5.10;;;7.90;93.30;;;;;;5031876;28;20117;-66
2022/04/11 04:42:27;;;;;;;6.82;4.03;;;7.90;93.10;;;;;;5031851;28;20021;-65
2022/04/11 04:44:54;;;;;;;8.35;4.13;;;8.00;92.80;;;;;;5031633;28;20120;-65
2022/04/11 04:47:20;;;;;;;8.02;4.13;;;8.00;92.30;;;;;;5013813;28;20032;-65
2022/04/11 04:49:46;;;;;;;9.88;4.43;;;8.10;92.00;;;;;;5031737;28;20033;-65
2022/04/11 04:52:12;;;;;;;8.88;4.53;;;8.10;92.20;;;;;;5031458;28;20021;-65
2022/04/11 04:54:38;;;;;;;7.60;3.92;;;8.10;92.20;;;;;;5031648;28;20113;-65
2022/04/11 04:57:05;;;;;;;13.48;4.57;;;8.10;92.00;;;;;;5032135;28;20447;-65
2022/04/11 04:59:31;;;;;;;9.57;4.72;;;8.10;92.30;;;;;;5031504;28;20251;-65
2022/04/11 05:01:56;;;;;;;9.80;4.53;;;8.10;92.00;;;;;;5029225;28;20034;-66
2022/04/11 05:04:22;;;;;;;9.35;4.30;;;8.00;92.20;;;;;;5028494;28;20038;-65
2022/04/11 05:06:48;;;;;;;10.93;4.45;;;8.00;92.30;;;;;;5028732;28;20035;-65
2022/04/11 05:09:14;;;;;;;7.57;4.72;;;8.00;92.50;;;;;;5031487;28;20396;-65
2022/04/11 05:11:40;;;;;;;12.02;4.85;;;8.00;92.40;;;;;;5029675;28;20129;-65
2022/04/11 05:14:06;;;;;;;10.48;4.63;;;8.00;92.70;;;;;;5028400;28;20036;-65
2022/04/11 05:16:31;;;;;;;8.10;4.20;;;7.90;92.70;;;;;;5027692;28;20361;-65
2022/04/11 05:18:57;;;;;;;9.82;4.55;;;7.90;93.00;;;;;;5028130;28;20577;-65
2022/04/11 05:21:23;;;;;;;8.38;3.70;;;7.80;93.30;;;;;;5029712;28;20036;-65
2022/04/11 05:23:48;;;;;;;10.05;4.45;;;7.80;93.20;;;;;;5030537;28;20125;-65
2022/04/11 05:26:14;;;;;;;11.15;4.40;;;7.70;93.40;;;;;;5031131;28;20033;-65
2022/04/11 05:28:40;;;;;;;11.70;4.75;;;7.70;93.20;;;;;;5031072;28;20105;-65
2022/04/11 05:31:05;;;;;;;9.07;4.38;;;7.80;93.20;;;;;;5031014;28;20060;-65
2022/04/11 05:33:31;;;;;;;9.65;4.50;;;7.80;93.20;;;;;;5031053;28;20055;-65
2022/04/11 05:35:57;;;;;;;11.75;4.53;;;7.70;93.40;;;;;;5030651;28;20029;-66
2022/04/11 05:38:23;;;;;;;9.45;4.10;;;7.80;93.30;;;;;;5030383;28;20032;-65
2022/04/11 05:40:49;;;;;;;10.07;4.50;;;7.70;93.50;;;;;;5030869;28;20037;-65
2022/04/11 05:43:15;;;;;;;7.45;4.13;;;7.70;93.40;;;;;;5031058;28;20156;-65
2022/04/11 05:45:44;;;;;;;10.05;4.05;;;7.70;93.60;;;;;;5030607;28;20092;-66
2022/04/11 05:48:10;;;;;;;8.00;4.50;;;7.60;93.90;;;;;;5027425;28;20104;-66
2022/04/11 05:50:36;;;;;;;10.57;4.43;;;7.60;94.20;;;;;;5027568;28;20029;-66
2022/04/11 05:53:02;;;;;;;10.43;5.32;;;7.50;94.50;;;;;;5026655;28;20037;-66
2022/04/11 05:55:30;;;;;;;10.80;4.32;;;7.50;94.60;;;;;;5027253;28;20032;-67
2022/04/11 05:57:56;;;;;;;9.27;4.35;;;7.40;94.70;;;;;;5030402;28;20029;-64
2022/04/11 06:00:22;;;;;;;7.22;3.65;;;7.50;94.70;;;;;;5029993;28;20435;-65
2022/04/11 06:02:48;;;;;;;11.13;4.57;;;7.50;94.40;;;;;;5027331;28;20400;-65
2022/04/11 06:05:14;;;;;;;8.90;4.32;;;7.60;94.40;;;;;;5027297;28;20042;-68
2022/04/11 06:07:40;;;;;;;7.13;4.18;;;7.60;94.10;;;;;;5026984;28;20378;-64
2022/04/11 06:10:07;;;;;;;8.48;4.05;;;7.70;94.00;;;;;;5027126;28;20491;-65
2022/04/11 06:12:37;;;;;;;10.02;3.90;;;7.80;93.80;;;;;;5027061;28;20026;-64
2022/04/11 06:15:03;;;;;;;10.98;4.30;;;8.00;93.80;;;;;;5026928;28;20520;-64
2022/04/11 06:17:29;;;;;;;8.85;3.78;;;8.10;93.30;;;;;;5029802;28;20071;-67
2022/04/11 06:19:58;;;;;;;9.48;3.58;;;8.20;93.10;;;;;;5030092;28;20581;-65
2022/04/11 06:22:24;;;;;;;6.60;3.42;;;8.30;92.70;;;;;;5010460;28;20428;-65
2022/04/11 06:24:50;;;;;;;11.27;3.85;;;8.40;92.20;;;;;;5026811;28;20045;-65
2022/04/11 06:27:17;;;;;;;11.88;5.38;;;8.50;92.10;;;;;;5026865;28;20039;-65
2022/04/11 06:29:44;;;;;;;6.63;3.35;;;8.60;91.80;;;;;;5028262;28;20421;-64
2022/04/11 06:32:09;;;;;;;6.78;2.95;;;8.70;91.40;;;;;;5030106;28;20029;-64
2022/04/11 06:34:36;;;;;;;7.35;3.25;;;8.80;90.50;;;;;;5029754;28;20417;-64
2022/04/11 06:37:03;;;;;;;6.22;3.42;;;8.80;90.60;;;;;;5029444;28;20420;-64
2022/04/11 06:39:29;;;;;;;6.00;3.10;;;8.90;90.50;;;;;;5030078;28;20025;-64
2022/04/11 06:41:55;;;;;;;6.40;2.90;;;8.90;89.80;;;;;;5029534;28;20344;-64
2022/04/11 06:44:21;;;;;;;11.27;3.33;;;9.00;89.90;;;;;;5029446;28;20029;-64
2022/04/11 06:46:46;;;;;;;6.70;3.42;;;9.00;87.80;;;;;;5029772;28;20427;-65
2022/04/11 06:49:12;;;;;;;5.70;2.85;;;9.00;88.10;;;;;;5029726;28;20392;-65
2022/04/11 06:51:38;;;;;;;7.60;3.30;;;9.00;87.30;;;;;;5029485;28;20044;-65
2022/04/11 06:54:04;;;;;;;7.88;2.95;;;9.20;87.10;;;;;;5029675;28;20030;-65
2022/04/11 06:56:30;;;;;;;7.85;3.00;;;9.40;84.30;;;;;;5029851;28;20079;-64
2022/04/11 06:58:56;;;;;;;5.00;2.72;;;9.70;83.20;;;;;;5029839;28;20018;-65
2022/04/11 07:01:21;;;;;;;10.18;2.85;;;9.90;81.50;;;;;;5028877;28;20052;-65
2022/04/11 07:03:47;;;;;;;10.73;2.75;;;10.20;79.30;;;;;;5026481;28;20028;-66
2022/04/11 07:06:13;;;;;;;5.38;4.00;;;10.50;78.70;;;;;;5026258;28;20077;-66
2022/04/11 07:08:39;;;;;;;6.13;2.65;;;11.10;76.80;;;;;;5026434;28;20419;-66
2022/04/11 07:11:06;;;;;;;9.57;2.80;;;11.50;73.00;;;;;;5027294;28;20037;-66
2022/04/11 07:13:33;;;;;;;4.63;2.50;;;11.80;69.80;;;;;;5029552;28;20026;-66
2022/04/11 07:15:59;;;;;;;4.13;2.30;;;11.80;68.00;;;;;;5029057;28;20059;-65
2022/04/11 07:18:28;;;;;;;3.10;2.33;;;11.50;67.90;;;;;;5029102;28;20021;-66
2022/04/11 07:20:57;;;;;;;5.72;2.35;;;11.30;70.10;;;;;;5029270;28;20123;-65
2022/04/11 07:23:23;;;;;;;4.57;2.00;;;10.90;68.70;;;;;;5027949;28;20065;-66
2022/04/11 07:25:49;;;;;;;6.18;2.40;;;11.00;70.10;;;;;;5026221;28;20061;-66
2022/04/11 07:28:16;;;;;;;4.85;2.30;;;11.50;68.80;;;;;;5027412;28;20030;-66
2022/04/11 07:30:42;;;;;;;6.05;2.05;;;12.10;65.70;;;;;;5029683;28;20172;-65
2022/04/11 07:33:08;;;;;;;3.70;2.17;;;12.70;61.90;;;;;;5029564;28;20104;-66
2022/04/11 07:35:34;;;;;;;6.25;2.17;;;13.20;56.20;;;;;;5033298;28;20028;-66
2022/04/11 07:38:01;;;;;;;6.25;2.75;;;13.50;48.30;;;;;;5033320;28;20025;-69
2022/04/11 07:40:27;;;;;;;4.95;2.22;;;13.60;46.00;;;;;;5032966;28;20456;-69
2022/04/11 07:42:54;;;;;;;6.38;2.13;;;13.80;48.70;;;;;;5024498;28;20461;-69
2022/04/11 07:45:22;;;;;;;7.50;2.65;;;13.80;47.10;;;;;;5027132;28;20029;-67
2022/04/11 07:47:49;;;;;;;6.13;2.38;;;14.10;46.50;;;;;;5032999;28;20030;-67
2022/04/11 07:50:15;;;;;;;3.22;2.00;;;14.00;42.90;;;;;;5032793;28;20029;-67
2022/04/11 07:52:42;;;;;;;2.83;2.30;;;14.30;45.40;;;;;;5032653;28;20116;-67
2022/04/11 07:55:10;;;;;;;6.18;2.50;;;14.60;42.20;;;;;;5032869;28;20080;-66
2022/04/11 07:57:36;;;;;;;4.32;2.33;;;14.90;42.00;;;;;;5015191;28;20033;-67
2022/04/11 08:00:02;;;;;;;4.18;2.30;;;15.20;41.20;;;;;;5032679;28;20075;-68
2022/04/11 08:02:28;;;;;;;3.63;2.20;;;14.90;40.70;;;;;;5032733;28;20022;-67
2022/04/11 08:04:54;;;;;;;5.57;2.00;;;15.00;38.70;;;;;;5032603;28;20044;-76
2022/04/11 08:07:20;;;;;;;4.07;2.63;;;14.60;38.60;;;;;;5032617;28;20025;-68
2022/04/11 08:09:48;;;;;;;4.72;1.90;;;14.30;41.20;;;;;;5032743;28;20017;-68
2022/04/11 08:12:13;;;;;;;3.80;2.08;;;13.70;41.40;;;;;;5032916;28;20029;-67
2022/04/11 08:14:39;;;;;;;5.07;2.00;;;13.80;43.10;;;;;;5032437;28;20037;-67
2022/04/11 08:17:04;;;;;;;6.03;2.88;;;14.20;42.80;;;;;;5032600;28;20021;-66
2022/04/11 08:19:30;;;;;;;4.75;2.53;;;15.00;41.40;;;;;;5032375;28;20479;-70
2022/04/11 08:21:56;;;;;;;3.90;1.85;;;15.00;38.30;;;;;;5031718;28;20017;-67
2022/04/11 08:24:22;;;;;;;3.25;2.08;;;15.50;38.00;;;;;;5029433;28;20042;-67
2022/04/11 08:26:48;;;;;;;3.95;2.38;;;16.00;36.70;;;;;;5029178;28;20025;-67
2022/04/11 08:29:13;;;;;;;5.63;2.42;;;15.90;34.40;;;;;;5031217;28;20044;-67
2022/04/11 08:31:39;;;;;;;9.13;3.00;;;16.20;33.40;;;;;;5031894;28;20036;-69
2022/04/11 08:34:05;;;;;;;4.85;2.28;;;16.40;35.20;;;;;;5031963;28;20028;-64
2022/04/11 08:36:31;;;;;;;4.85;2.70;;;17.00;32.50;;;;;;5032076;28;20026;-66
2022/04/11 08:38:57;;;;;;;5.50;2.70;;;16.90;30.00;;;;;;5031725;28;20443;-66
2022/04/11 08:41:26;;;;;;;7.43;2.50;;;17.60;30.00;;;;;;5031953;28;20041;-66
2022/04/11 08:43:54;;;;;;;4.57;2.33;;;18.40;29.30;;;;;;5031919;28;20030;-67
2022/04/11 08:46:20;;;;;;;3.50;2.03;;;19.50;26.70;;;;;;5029903;28;20060;-68
2022/04/11 08:48:46;;;;;;;3.88;2.20;;;19.30;24.90;;;;;;5032106;28;20029;-68
2022/04/11 08:51:12;;;;;;;3.00;2.10;;;19.70;26.10;;;;;;5031924;28;20025;-67
2022/04/11 08:53:38;;;;;;;4.75;2.42;;;19.80;24.70;;;;;;5031883;28;20030;-66
2022/04/11 08:56:04;;;;;;;7.40;2.38;;;20.20;23.90;;;;;;5032059;28;20040;-67
2022/04/11 08:58:30;;;;;;;5.63;2.63;;;21.30;22.40;;;;;;5031562;28;20026;-65
2022/04/11 09:00:55;;;;;;;6.47;2.70;;;21.60;21.10;;;;;;5031531;28;20032;-64
2022/04/11 09:03:21;;;;;;;4.45;2.42;;;22.10;20.70;;;;;;5031621;28;20026;-65
2022/04/11 09:06:09;;;;;;;4.13;2.35;;;21.90;19.70;;;;;;5031404;28;20033;-66
2022/04/11 09:08:39;;;;;;;5.30;2.42;;;20.70;21.10;;;;;;5030441;28;20476;-65
2022/04/11 09:11:04;;;;;;;4.65;2.58;;;21.60;20.40;;;;;;5031113;28;20053;-69
2022/04/11 09:13:47;;;;;;;6.63;2.70;;;22.00;20.50;;;;;;5031237;28;20022;-67
2022/04/11 09:16:13;;;;;;;7.82;2.85;;;22.60;19.30;;;;;;5030122;28;20037;-67
2022/04/11 09:18:46;;;;;;;6.07;2.60;;;23.10;19.20;;;;;;5031275;28;20037;-69
2022/04/11 09:21:12;;;;;;;5.88;2.67;;;23.50;17.20;;;;;;5031295;28;20037;-68
2022/04/11 09:23:38;;;;;;;4.30;2.33;;;22.60;18.70;;;;;;5028961;28;20079;-68
2022/04/11 09:26:16;;;;;;;4.60;2.85;;;22.80;17.90;;;;;;5028142;28;20038;-68
2022/04/11 09:28:42;;;;;;;3.20;2.10;;;22.70;18.50;;;;;;5029664;28;20034;-71
2022/04/11 09:31:08;;;;;;;7.00;2.67;;;21.60;19.10;;;;;;5031022;28;20052;-66
2022/04/11 09:33:40;;;;;;;7.93;2.97;;;22.50;19.90;;;;;;5031067;28;20029;-67
2022/04/11 09:36:06;;;;;;;7.05;2.40;;;23.10;18.30;;;;;;5030517;28;20049;-65
2022/04/11 09:38:37;;;;;;;5.93;2.60;;;24.40;17.10;;;;;;5030981;28;20025;-67
2022/04/11 09:41:03;;;;;;;5.30;2.55;;;24.10;16.60;;;;;;5030914;28;20033;-66
2022/04/11 09:43:31;;;;;;;5.45;2.72;;;23.20;18.10;;;;;;5031049;28;20021;-67
2022/04/11 09:46:02;;;;;;;4.20;2.35;;;22.80;17.90;;;;;;5030707;28;20034;-66
2022/04/11 09:48:35;;;;;;;8.13;2.72;;;23.90;18.30;;;;;;5030736;28;20394;-67
2022/04/11 09:51:01;;;;;;;6.68;2.92;;;24.10;16.50;;;;;;5030675;28;20033;-67
2022/04/11 09:53:34;;;;;;;4.00;2.90;;;23.40;16.70;;;;;;5030534;28;20048;-69
2022/04/11 09:56:05;;;;;;;3.80;2.40;;;21.50;18.80;;;;;;5030836;28;20029;-71
2022/04/11 09:58:34;;;;;;;5.18;2.80;;;20.90;20.50;;;;;;5030854;28;20092;-66
2022/04/11 10:01:01;;;;;;;4.03;2.45;;;19.90;20.80;;;;;;5027424;28;20503;-66
2022/04/11 10:03:28;;;;;;;6.97;2.75;;;18.40;23.10;;;;;;5009521;28;20033;-62
2022/04/11 10:05:55;;;;;;;7.20;2.88;;;16.90;25.50;;;;;;5029525;28;20065;-62
2022/04/11 10:08:25;;;;;;;6.57;2.65;;;16.90;27.30;;;;;;5026284;28;20018;-63
2022/04/11 10:10:51;;;;;;;5.63;2.85;;;18.10;26.90;;;;;;5027462;28;20033;-63
2022/04/11 10:13:17;;;;;;;3.28;2.42;;;21.10;23.40;;;;;;5027147;28;20107;-62
2022/04/11 10:15:48;;;;;;;6.40;2.60;;;21.90;20.00;;;;;;5027158;28;20048;-62
2022/04/11 10:18:25;;;;;;;3.83;2.63;;;23.80;18.10;;;;;;5029984;28;20057;-63
2022/04/11 10:20:56;;;;;;;5.20;2.38;;;24.20;17.20;;;;;;5027205;28;20021;-62
2022/04/11 10:23:31;;;;;;;;;;;24.90;16.80;;;;;;5027412;28;20408;-64
2022/04/11 10:25:59;;;;;;;4.70;2.38;;;25.70;14.90;;;;;;5026859;28;19913;-64
2022/04/11 10:28:30;;;;;;;7.85;2.85;;;26.20;12.30;;;;;;5027011;28;20046;-63
2022/04/11 10:31:10;;;;;;;5.18;2.80;;;24.50;14.50;;;;;;5027035;28;20488;-62
2022/04/11 10:33:50;;;;;;;6.03;3.00;;;24.30;13.90;;;;;;5027074;28;20549;-63
2022/04/11 10:36:31;;;;;;;5.38;2.65;;;24.40;15.10;;;;;;5026494;28;20033;-63
2022/04/11 10:39:17;;;;;;;;;;;25.90;14.60;;;;;;5027205;28;20029;-64
2022/04/11 10:41:57;;;;;;;3.85;2.30;;;28.00;13.80;;;;;;5027140;28;19916;-62
2022/04/11 10:44:41;;;;;;;4.05;2.65;;;28.70;10.60;;;;;;5026582;28;20037;-63
2022/04/11 10:47:10;;;;;;;5.85;2.85;;;27.20;11.90;;;;;;5026713;28;20026;-64
2022/04/11 10:49:59;;;;;;;3.97;2.53;;;23.90;13.60;;;;;;5026222;28;20428;-64
2022/04/11 10:55:06;;;;;;;8.30;2.78;;;26.80;13.30;;;;;;5026761;28;20036;-63
2022/04/11 10:57:37;;;;;;;5.60;3.22;;;27.60;13.10;;;;;;5026698;28;20554;-63
2022/04/11 11:00:13;;;;;;;5.30;2.80;;;27.10;11.80;;;;;;5026742;28;20049;-64
2022/04/11 11:02:51;;;;;;;8.02;2.88;;;25.00;13.80;;;;;;5026778;28;20451;-64
2022/04/11 11:05:30;;;;;;;5.00;3.17;;;24.60;14.10;;;;;;5026316;28;20565;-63
2022/04/11 11:08:14;;;;;;;4.97;2.67;;;25.30;13.30;;;;;;5026140;28;20033;-66
2022/04/11 11:10:43;;;;;;;4.43;3.05;;;26.20;13.10;;;;;;5030436;28;20120;-65
2022/04/11 11:13:36;;;;;;;4.00;3.25;;;26.30;13.00;;;;;;5030415;28;20111;-64
2022/04/11 11:16:07;;;;;;;5.75;3.28;;;27.50;11.20;;;;;;5029995;28;20035;-65
2022/04/11 11:18:51;;;;;;;5.47;3.10;;;26.80;11.50;;;;;;5030276;28;20384;-65
2022/04/11 11:21:48;;;;;;;5.15;2.78;;;28.30;10.60;;;;;;5030011;28;20040;-66
2022/04/11 11:24:15;;;;;;;3.88;3.13;;;28.50;10.90;;;;;;5029758;28;20064;-65
2022/04/11 11:26:48;;;;;;;5.93;2.88;;;28.40;10.70;;;;;;5030138;28;20033;-64
2022/04/11 11:29:31;;;;;;;3.95;2.90;;;26.00;11.30;;;;;;5030491;28;20025;-64
2022/04/11 11:31:57;;;;;;;7.47;3.38;;;26.70;11.90;;;;;;5030234;28;20076;-64
2022/04/11 11:34:26;;;;;;;4.18;3.28;;;26.00;12.30;;;;;;5030059;28;20037;-63
2022/04/11 11:37:00;;;;;;;6.43;3.10;;;25.90;13.30;;;;;;5029718;28;20044;-63
2022/04/11 11:39:26;;;;;;;5.28;2.78;;;27.00;12.50;;;;;;5030514;28;20034;-62
2022/04/11 11:42:04;;;;;;;3.92;2.97;;;26.60;11.40;;;;;;5030117;28;20101;-63
2022/04/11 11:44:31;;;;;;;5.40;3.05;;;24.30;12.50;;;;;;5029921;28;20471;-63
2022/04/11 11:47:02;;;;;;;7.00;3.72;;;21.00;16.00;;;;;;5029993;28;20033;-62
2022/04/11 11:49:42;;;;;;;4.95;3.25;;;21.50;17.00;;;;;;5029570;28;20025;-61
2022/04/11 11:52:19;;;;;;;8.20;3.53;;;23.70;15.30;;;;;;5029288;28;20392;-65
2022/04/11 11:54:49;;;;;;;5.93;3.33;;;23.20;14.70;;;;;;5029915;28;20023;-64
2022/04/11 11:57:23;;;;;;;5.53;3.15;;;22.40;15.80;;;;;;5029832;28;20060;-62
2022/04/11 12:00:02;;;;;;;5.30;3.70;;;25.80;14.90;;;;;;5029599;28;20036;-62
2022/04/11 12:05:20;;;;;;;4.88;3.08;;;28.40;10.90;;;;;;5029525;28;20239;-62
2022/04/11 12:07:52;;;;;;;3.30;2.90;;;29.10;11.10;;;;;;5028904;28;20025;-63
2022/04/11 12:10:20;;;;;;;4.63;3.50;;;26.70;11.00;;;;;;5029169;28;20087;-63
2022/04/11 12:12:46;;;;;;;3.90;3.33;;;26.70;10.40;;;;;;5029101;28;20022;-62
2022/04/11 12:15:14;;;;;;;6.00;3.80;;;26.70;11.00;;;;;;5029300;28;20571;-62
2022/04/11 12:17:41;;;;;;;4.00;3.40;;;28.30;10.90;;;;;;5029459;28;20057;-62
2022/04/11 12:20:21;;;;;;;4.43;3.22;;;29.10;10.40;;;;;;5028089;28;20025;-62
2022/04/11 12:23:02;;;;;;;4.97;3.70;;;31.00;8.70;;;;;;5028702;28;20536;-65
2022/04/11 12:25:29;;;;;;;;;;;29.70;7.70;;;;;;5029886;28;20429;-64
2022/04/11 12:28:11;;;;;;;5.25;4.05;;;28.50;9.00;;;;;;5029008;28;19915;-65
2022/04/11 12:30:37;;;;;;;6.07;3.83;;;27.60;9.40;;;;;;5028713;28;20701;-65
2022/04/11 12:33:04;;;;;;;5.32;3.88;;;27.70;10.60;;;;;;5028753;28;20029;-65
2022/04/11 12:35:30;;;;;;;5.93;3.70;;;25.50;11.20;;;;;;5029157;28;20030;-65
2022/04/11 12:38:00;;;;;;;5.80;4.05;;;24.20;12.60;;;;;;5028867;28;20357;-65
2022/04/11 12:40:45;;;;;;;;;;;25.60;12.60;;;;;;5029688;28;20026;-65
2022/04/11 12:43:12;;;;;;;7.72;4.55;;;24.20;13.10;;;;;;5028616;28;19905;-65
2022/04/11 12:45:38;;;;;;;5.93;3.92;;;25.30;13.20;;;;;;5028614;28;20080;-65
2022/04/11 12:48:06;;;;;;;6.28;4.13;;;25.10;12.40;;;;;;5028868;28;20030;-63
2022/04/11 12:50:33;;;;;;;6.38;4.03;;;24.00;14.00;;;;;;5029048;28;20104;-63
2022/04/11 12:53:00;;;;;;;6.30;3.88;;;24.20;14.40;;;;;;5028161;28;20090;-63
2022/04/11 12:55:28;;;;;;;8.95;4.95;;;24.50;14.10;;;;;;5028703;28;20036;-63
2022/04/11 12:58:01;;;;;;;6.05;3.80;;;23.10;14.60;;;;;;5028542;28;20033;-63
2022/04/11 13:00:26;;;;;;;5.97;4.38;;;23.10;16.30;;;;;;5028644;28;20021;-63